Time;durP1;ratioP1;P1;durP2;ratioP2;P2;SDS_P1;SDS_P2;PMS_P1;PMS_P2;Temp;Humidity;BMP_temperature;BMP_pressure;BME280_temperature;BME280_humidity;BME280_pressure;Samples;Min_cycle;Max_cycle;Signal;HPM_P1;HPM_P2
2024/02/14 00:00:04;;;;;;;0.70;0.30;;;22.40;47.10;;;;;;5070967;28;20037;-38
2024/02/14 00:02:30;;;;;;;0.90;0.35;;;22.50;47.30;;;;;;5067558;28;20039;-38
2024/02/14 00:04:57;;;;;;;0.70;0.35;;;22.40;47.10;;;;;;5067002;28;20060;-38
2024/02/14 00:07:26;;;;;;;1.08;0.57;;;22.40;47.10;;;;;;5068377;28;20029;-38
2024/02/14 00:09:53;;;;;;;2.88;0.40;;;22.40;47.10;;;;;;5065562;28;20078;-38
2024/02/14 00:12:20;;;;;;;1.35;0.50;;;22.40;47.10;;;;;;5073977;28;20025;-38
2024/02/14 00:14:46;;;;;;;0.68;0.40;;;22.40;46.90;;;;;;5067053;28;20048;-38
2024/02/14 00:17:13;;;;;;;2.25;0.60;;;22.40;47.10;;;;;;5070838;28;20036;-37
2024/02/14 00:19:39;;;;;;;1.40;0.50;;;22.40;47.10;;;;;;5072938;28;20090;-38
2024/02/14 00:22:06;;;;;;;1.23;0.50;;;22.40;47.10;;;;;;5070551;28;20036;-37
2024/02/14 00:24:33;;;;;;;2.73;0.30;;;22.40;47.10;;;;;;5075108;28;20028;-38
2024/02/14 00:27:00;;;;;;;1.25;0.50;;;22.40;47.10;;;;;;5050796;28;20308;-38
2024/02/14 00:29:27;;;;;;;1.20;0.40;;;22.30;47.10;;;;;;5071219;28;20047;-38
2024/02/14 00:31:53;;;;;;;0.82;0.38;;;22.30;47.00;;;;;;5069335;28;20039;-37
2024/02/14 00:34:20;;;;;;;0.70;0.40;;;22.30;47.00;;;;;;5050016;28;20520;-38
2024/02/14 00:36:47;;;;;;;0.52;0.40;;;22.30;47.10;;;;;;5067304;28;20057;-38
2024/02/14 00:39:14;;;;;;;0.35;0.30;;;22.30;47.10;;;;;;5073997;28;20033;-38
2024/02/14 00:41:40;;;;;;;1.30;0.35;;;22.30;47.10;;;;;;5074375;28;20466;-38
2024/02/14 00:44:07;;;;;;;2.40;0.50;;;22.30;47.00;;;;;;5075619;28;20020;-38
2024/02/14 00:46:34;;;;;;;2.25;0.50;;;22.30;47.00;;;;;;5085011;28;20463;-38
2024/02/14 00:49:00;;;;;;;0.57;0.40;;;22.30;47.00;;;;;;5083788;28;20025;-38
2024/02/14 00:51:27;;;;;;;0.65;0.40;;;22.30;47.00;;;;;;5081486;28;20564;-38
2024/02/14 00:53:55;;;;;;;0.52;0.30;;;22.30;47.00;;;;;;5080108;28;20033;-37
2024/02/14 00:56:23;;;;;;;0.45;0.40;;;22.30;47.10;;;;;;5083823;28;20036;-37
2024/02/14 00:58:52;;;;;;;3.60;0.40;;;22.30;47.00;;;;;;5078579;28;20513;-38
2024/02/14 01:01:19;;;;;;;0.98;0.30;;;22.30;47.00;;;;;;5075851;28;20439;-38
2024/02/14 01:03:45;;;;;;;;;;;22.20;46.90;;;;;;5077258;28;20060;-38
2024/02/14 01:06:14;;;;;;;0.50;0.30;;;22.20;46.90;;;;;;5079461;28;20373;-37
2024/02/14 01:08:43;;;;;;;0.40;0.30;;;22.20;46.90;;;;;;5075323;28;20020;-37
2024/02/14 01:11:14;;;;;;;0.65;0.40;;;22.30;47.00;;;;;;5078782;28;20054;-38
2024/02/14 01:13:42;;;;;;;1.25;0.30;;;22.30;47.00;;;;;;5081358;28;20036;-38
2024/02/14 01:16:10;;;;;;;1.73;0.40;;;22.30;47.20;;;;;;5080532;28;20028;-38
2024/02/14 01:18:37;;;;;;;1.63;0.38;;;22.20;47.10;;;;;;5079640;28;20044;-38
2024/02/14 01:21:04;;;;;;;2.20;0.50;;;22.20;47.00;;;;;;5072911;28;20031;-38
2024/02/14 01:23:32;;;;;;;0.40;0.35;;;22.20;47.00;;;;;;5075439;28;20056;-37
2024/02/14 01:26:04;;;;;;;0.60;0.47;;;22.20;47.00;;;;;;5077821;28;20029;-37
2024/02/14 01:28:31;;;;;;;0.60;0.30;;;22.20;47.00;;;;;;5074335;28;20029;-38
2024/02/14 01:30:58;;;;;;;3.05;0.50;;;22.20;47.00;;;;;;5070231;28;20123;-37
2024/02/14 01:33:30;;;;;;;0.70;0.50;;;22.20;47.00;;;;;;5076540;28;20029;-37
2024/02/14 01:35:58;;;;;;;0.63;0.30;;;22.20;47.00;;;;;;5080125;28;20040;-37
2024/02/14 01:38:26;;;;;;;0.43;0.30;;;22.20;46.90;;;;;;5076930;28;20035;-38
2024/02/14 01:40:56;;;;;;;0.45;0.30;;;22.20;47.00;;;;;;5079754;28;20115;-38
2024/02/14 01:43:23;;;;;;;1.00;0.40;;;22.20;47.00;;;;;;5075720;28;20021;-37
2024/02/14 01:45:51;;;;;;;1.17;0.70;;;22.20;47.00;;;;;;5076812;28;20067;-38
2024/02/14 01:48:26;;;;;;;0.40;0.40;;;22.20;47.00;;;;;;5081177;28;20436;-38
2024/02/14 01:50:53;;;;;;;0.40;0.40;;;22.20;46.90;;;;;;5074331;28;20044;-37
2024/02/14 01:53:25;;;;;;;0.60;0.47;;;22.10;46.80;;;;;;5062706;28;20571;-38
2024/02/14 01:55:53;;;;;;;0.50;0.50;;;22.10;46.90;;;;;;5059166;28;20039;-38
2024/02/14 01:58:21;;;;;;;0.57;0.40;;;22.10;46.90;;;;;;5060513;28;20074;-38
2024/02/14 02:00:55;;;;;;;0.40;0.38;;;22.20;47.00;;;;;;5057812;28;20028;-37
2024/02/14 02:03:24;;;;;;;0.60;0.40;;;22.20;47.00;;;;;;5060725;28;20125;-38
2024/02/14 02:05:53;;;;;;;0.57;0.50;;;22.20;47.00;;;;;;5078654;28;20104;-38
2024/02/14 02:08:21;;;;;;;1.13;0.50;;;22.10;46.90;;;;;;5053800;28;20037;-37
2024/02/14 02:10:50;;;;;;;0.70;0.40;;;22.10;46.80;;;;;;5076543;28;20032;-38
2024/02/14 02:13:17;;;;;;;0.70;0.40;;;22.10;47.00;;;;;;5069938;28;20111;-37
2024/02/14 02:15:44;;;;;;;0.93;0.40;;;22.10;47.60;;;;;;5079358;28;20035;-37
2024/02/14 02:18:11;;;;;;;1.23;0.40;;;22.10;47.00;;;;;;5068275;28;20025;-38
2024/02/14 02:20:42;;;;;;;0.40;0.40;;;22.10;47.00;;;;;;5076749;28;20086;-37
2024/02/14 02:23:15;;;;;;;0.80;0.43;;;22.10;47.00;;;;;;5075454;28;20039;-37
2024/02/14 02:25:43;;;;;;;0.43;0.40;;;22.10;47.00;;;;;;5070169;28;20052;-37
2024/02/14 02:28:10;;;;;;;0.60;0.50;;;22.10;46.90;;;;;;5079424;28;20034;-38
2024/02/14 02:30:37;;;;;;;;;;;22.10;47.00;;;;;;5038742;28;20043;-38
2024/02/14 02:33:07;;;;;;;0.75;0.45;;;22.10;47.00;;;;;;5078795;28;19986;-38
2024/02/14 02:35:35;;;;;;;0.50;0.43;;;22.10;47.00;;;;;;5076089;28;20024;-38
2024/02/14 02:38:02;;;;;;;1.33;0.65;;;22.10;47.00;;;;;;5075969;28;20157;-38
2024/02/14 02:40:30;;;;;;;0.40;0.40;;;22.10;46.90;;;;;;5073605;28;20036;-39
2024/02/14 02:42:58;;;;;;;0.95;0.60;;;22.00;46.90;;;;;;5071809;28;20025;-38
2024/02/14 02:45:25;;;;;;;0.40;0.35;;;22.00;47.00;;;;;;5082321;28;20046;-38
2024/02/14 02:47:52;;;;;;;1.00;0.70;;;22.00;47.10;;;;;;5075875;28;20029;-38
2024/02/14 02:50:19;;;;;;;;;;;22.10;47.10;;;;;;5076919;28;20041;-38
2024/02/14 02:52:46;;;;;;;1.38;0.50;;;22.10;47.20;;;;;;5074266;28;19920;-38
2024/02/14 02:55:13;;;;;;;0.90;0.60;;;22.10;47.10;;;;;;5071433;28;20412;-37
2024/02/14 02:57:45;;;;;;;0.90;0.50;;;22.00;47.00;;;;;;5063237;28;20122;-37
2024/02/14 03:00:13;;;;;;;1.63;0.40;;;22.00;47.10;;;;;;5058336;28;20029;-37
2024/02/14 03:02:46;;;;;;;0.95;0.68;;;22.00;47.20;;;;;;5070260;28;20024;-37
2024/02/14 03:05:23;;;;;;;1.05;0.57;;;22.00;47.00;;;;;;5075225;28;20047;-38
2024/02/14 03:07:50;;;;;;;1.80;0.50;;;22.00;47.30;;;;;;5070148;28;20051;-39
2024/02/14 03:10:18;;;;;;;1.00;0.57;;;21.90;47.40;;;;;;5075909;28;20477;-38
2024/02/14 03:12:47;;;;;;;;;;;21.90;47.40;;;;;;5073745;28;20036;-45
2024/02/14 03:15:15;;;;;;;2.70;0.55;;;21.90;47.40;;;;;;5072405;28;19912;-37
2024/02/14 03:17:45;;;;;;;2.30;0.47;;;21.70;47.20;;;;;;5075151;28;20037;-37
2024/02/14 03:20:16;;;;;;;0.88;0.47;;;21.70;47.50;;;;;;5073179;28;20043;-37
2024/02/14 03:22:46;;;;;;;2.08;0.60;;;21.70;47.50;;;;;;5071941;28;20046;-37
2024/02/14 03:25:20;;;;;;;1.33;0.43;;;21.70;47.60;;;;;;5078327;28;20032;-37
2024/02/14 03:27:49;;;;;;;1.10;0.50;;;21.70;47.70;;;;;;5073436;28;20031;-37
2024/02/14 03:30:16;;;;;;;1.10;0.50;;;21.70;47.60;;;;;;5075457;28;20029;-37
2024/02/14 03:32:46;;;;;;;1.10;0.60;;;21.70;47.60;;;;;;5073498;28;20736;-37
2024/02/14 03:35:14;;;;;;;1.40;0.57;;;21.50;47.60;;;;;;5075485;28;20091;-37
2024/02/14 03:37:48;;;;;;;0.95;0.65;;;21.60;47.60;;;;;;5072039;28;20041;-37
2024/02/14 03:40:15;;;;;;;1.40;0.60;;;21.60;47.60;;;;;;5069705;28;20401;-37
2024/02/14 03:42:42;;;;;;;2.25;0.88;;;21.50;47.80;;;;;;5077609;28;20020;-37
2024/02/14 03:45:09;;;;;;;0.93;0.70;;;21.50;47.90;;;;;;5075230;28;20467;-37
2024/02/14 03:47:39;;;;;;;0.77;0.60;;;21.60;47.90;;;;;;5074915;28;20415;-37
2024/02/14 03:50:07;;;;;;;2.72;0.50;;;21.50;47.80;;;;;;5077405;28;20041;-37
2024/02/14 03:52:34;;;;;;;1.05;0.65;;;21.40;47.90;;;;;;5075839;28;20090;-37
2024/02/14 03:55:01;;;;;;;1.20;0.60;;;21.50;47.90;;;;;;5078630;28;20111;-36
2024/02/14 03:57:28;;;;;;;0.75;0.60;;;21.40;47.80;;;;;;5073930;28;20142;-37
2024/02/14 04:00:02;;;;;;;2.70;0.70;;;21.40;48.10;;;;;;5067981;28;20088;-36
2024/02/14 04:02:29;;;;;;;1.25;0.60;;;21.40;47.90;;;;;;5067608;28;20045;-36
2024/02/14 04:04:55;;;;;;;1.00;0.60;;;21.40;47.90;;;;;;5065020;28;20053;-36
2024/02/14 04:07:22;;;;;;;1.93;0.77;;;21.30;47.80;;;;;;5051585;28;20058;-36
2024/02/14 04:09:48;;;;;;;1.80;0.70;;;21.30;48.00;;;;;;5074644;28;20032;-36
2024/02/14 04:12:15;;;;;;;2.63;0.65;;;21.30;47.90;;;;;;5079046;28;20032;-36
2024/02/14 04:14:42;;;;;;;1.10;0.80;;;21.30;47.90;;;;;;5082256;28;20040;-36
2024/02/14 04:17:08;;;;;;;0.82;0.70;;;21.30;48.00;;;;;;5069771;28;20036;-36
2024/02/14 04:19:35;;;;;;;0.70;0.50;;;21.30;48.00;;;;;;5078183;28;20025;-36
2024/02/14 04:22:01;;;;;;;1.23;0.80;;;21.30;48.00;;;;;;5081793;28;20033;-36
2024/02/14 04:24:27;;;;;;;2.00;0.75;;;21.20;47.90;;;;;;5077575;28;20627;-36
2024/02/14 04:26:56;;;;;;;1.90;0.80;;;21.20;48.00;;;;;;5078578;28;20041;-36
2024/02/14 04:29:23;;;;;;;2.75;0.70;;;21.20;48.00;;;;;;5077654;28;20096;-37
2024/02/14 04:31:49;;;;;;;1.42;0.70;;;21.20;48.00;;;;;;5070518;28;20054;-37
2024/02/14 04:34:15;;;;;;;0.90;0.70;;;21.10;48.10;;;;;;5071647;28;20033;-36
2024/02/14 04:36:41;;;;;;;2.45;0.80;;;21.10;48.10;;;;;;5081394;28;20032;-36
2024/02/14 04:39:09;;;;;;;0.75;0.60;;;21.10;48.00;;;;;;5079509;28;20132;-37
2024/02/14 04:41:37;;;;;;;1.00;0.60;;;21.00;48.10;;;;;;5082226;28;20024;-36
2024/02/14 04:44:09;;;;;;;1.23;0.93;;;21.10;48.20;;;;;;5063521;28;20032;-36
2024/02/14 04:46:35;;;;;;;0.77;0.60;;;21.10;48.20;;;;;;5081237;28;20482;-37
2024/02/14 04:49:05;;;;;;;1.63;0.73;;;21.10;48.30;;;;;;5081985;28;20092;-36
2024/02/14 04:51:31;;;;;;;1.08;0.90;;;21.00;48.20;;;;;;5082329;28;20032;-36
2024/02/14 04:54:00;;;;;;;1.48;0.85;;;21.00;48.10;;;;;;5076019;28;20029;-37
2024/02/14 04:56:27;;;;;;;1.23;0.90;;;21.00;48.10;;;;;;5076042;28;20024;-36
2024/02/14 04:58:56;;;;;;;1.33;0.90;;;20.90;48.30;;;;;;5083040;28;20655;-36
2024/02/14 05:01:22;;;;;;;1.88;0.88;;;20.90;48.30;;;;;;5078532;28;20027;-37
2024/02/14 05:03:49;;;;;;;0.98;0.77;;;20.90;48.30;;;;;;5078809;28;20064;-36
2024/02/14 05:06:15;;;;;;;;;;;20.90;48.40;;;;;;5079708;28;20037;-36
2024/02/14 05:08:42;;;;;;;0.90;0.70;;;20.90;48.40;;;;;;5077106;28;19930;-36
2024/02/14 05:11:08;;;;;;;1.50;0.95;;;20.90;48.30;;;;;;5081146;28;20039;-36
2024/02/14 05:13:34;;;;;;;3.33;0.80;;;20.90;48.40;;;;;;5085010;28;20020;-36
2024/02/14 05:16:04;;;;;;;1.35;0.90;;;20.90;48.50;;;;;;5081277;28;20035;-36
2024/02/14 05:18:30;;;;;;;1.13;0.80;;;20.90;48.50;;;;;;5081680;28;20028;-36
2024/02/14 05:20:58;;;;;;;1.48;0.65;;;20.90;48.50;;;;;;5077731;28;20040;-41
2024/02/14 05:23:24;;;;;;;1.00;0.80;;;20.90;48.50;;;;;;5083467;28;20036;-36
2024/02/14 05:25:51;;;;;;;1.23;0.63;;;20.80;48.40;;;;;;5078672;28;20059;-36
2024/02/14 05:28:18;;;;;;;1.33;0.83;;;20.80;48.40;;;;;;5069217;28;20028;-36
2024/02/14 05:30:45;;;;;;;1.02;0.85;;;20.70;48.50;;;;;;5077803;28;20289;-36
2024/02/14 05:33:11;;;;;;;1.20;0.80;;;20.80;48.50;;;;;;5078971;28;20028;-36
2024/02/14 05:35:37;;;;;;;1.00;0.90;;;20.80;48.50;;;;;;5076288;28;20040;-36
2024/02/14 05:38:07;;;;;;;1.67;0.82;;;20.80;48.50;;;;;;5074057;28;20065;-36
2024/02/14 05:40:33;;;;;;;2.20;0.93;;;20.80;48.60;;;;;;5075930;28;20059;-36
2024/02/14 05:43:00;;;;;;;1.03;0.80;;;20.80;48.50;;;;;;5079766;28;20021;-36
2024/02/14 05:45:27;;;;;;;0.82;0.63;;;20.70;48.40;;;;;;5073199;28;20284;-36
2024/02/14 05:47:53;;;;;;;;;;;20.70;48.70;;;;;;5075479;28;20052;-37
2024/02/14 05:50:19;;;;;;;1.58;0.70;;;20.70;48.70;;;;;;5072861;28;19928;-36
2024/02/14 05:52:45;;;;;;;0.93;0.60;;;20.80;48.70;;;;;;5064767;28;20032;-37
2024/02/14 05:55:11;;;;;;;1.05;0.80;;;20.70;48.70;;;;;;5082227;28;20031;-36
2024/02/14 05:57:38;;;;;;;1.48;0.80;;;20.70;48.70;;;;;;5076868;28;20036;-37
2024/02/14 06:00:05;;;;;;;0.95;0.68;;;20.70;48.60;;;;;;5068282;28;20587;-37
2024/02/14 06:02:31;;;;;;;1.25;0.70;;;20.70;48.70;;;;;;5062265;28;20624;-36
2024/02/14 06:04:57;;;;;;;0.88;0.73;;;20.60;48.60;;;;;;5077799;28;20036;-36
2024/02/14 06:07:24;;;;;;;0.90;0.80;;;20.70;48.70;;;;;;5078754;28;20032;-36
2024/02/14 06:09:50;;;;;;;1.02;0.70;;;20.70;48.60;;;;;;5078295;28;20029;-36
2024/02/14 06:12:16;;;;;;;1.60;0.77;;;20.70;48.70;;;;;;5079046;28;20021;-37
2024/02/14 06:14:42;;;;;;;0.98;0.77;;;20.70;48.70;;;;;;5076554;28;20033;-36
2024/02/14 06:17:08;;;;;;;0.77;0.60;;;20.60;48.60;;;;;;5078193;28;20083;-36
2024/02/14 06:19:35;;;;;;;1.75;0.68;;;20.60;48.60;;;;;;5077082;28;20021;-36
2024/02/14 06:22:01;;;;;;;1.95;0.68;;;20.60;48.70;;;;;;5078659;28;20035;-36
2024/02/14 06:24:27;;;;;;;0.63;0.40;;;20.60;48.60;;;;;;5075654;28;20377;-36
2024/02/14 06:26:53;;;;;;;0.90;0.70;;;20.60;48.60;;;;;;5076271;28;20035;-36
2024/02/14 06:29:20;;;;;;;0.77;0.70;;;20.60;48.60;;;;;;5078838;28;20059;-36
2024/02/14 06:31:47;;;;;;;1.30;0.80;;;20.60;48.60;;;;;;5074421;28;20106;-36
2024/02/14 06:34:13;;;;;;;1.92;0.90;;;20.60;48.60;;;;;;5077280;28;20560;-35
2024/02/14 06:36:39;;;;;;;1.38;0.70;;;20.50;48.70;;;;;;5068979;28;20029;-35
2024/02/14 06:39:07;;;;;;;1.23;0.90;;;20.50;48.70;;;;;;5076992;28;20095;-36
2024/02/14 06:41:33;;;;;;;1.58;0.90;;;20.60;48.70;;;;;;5073397;28;20032;-36
2024/02/14 06:43:59;;;;;;;1.30;0.98;;;20.50;48.70;;;;;;5068543;28;20025;-36
2024/02/14 06:46:26;;;;;;;1.30;0.80;;;20.50;48.60;;;;;;5067599;28;20771;-36
2024/02/14 06:48:52;;;;;;;1.92;0.70;;;20.50;48.60;;;;;;5069125;28;20039;-36
2024/02/14 06:51:18;;;;;;;0.95;0.80;;;20.50;48.60;;;;;;5067980;28;20581;-36
2024/02/14 06:53:44;;;;;;;0.77;0.60;;;20.50;48.80;;;;;;5070712;28;20033;-36
2024/02/14 06:56:10;;;;;;;0.57;0.57;;;20.60;48.80;;;;;;5067408;28;20032;-36
2024/02/14 06:58:36;;;;;;;0.90;0.77;;;20.50;48.80;;;;;;5068335;28;20060;-36
2024/02/14 07:01:03;;;;;;;1.02;0.80;;;20.50;48.70;;;;;;5064696;28;20024;-36
2024/02/14 07:03:29;;;;;;;0.60;0.60;;;20.50;48.70;;;;;;5066450;28;20045;-36
2024/02/14 07:05:55;;;;;;;0.80;0.52;;;20.50;48.70;;;;;;5050845;28;20080;-35
2024/02/14 07:08:21;;;;;;;1.30;0.80;;;20.40;48.70;;;;;;5047801;28;20774;-36
2024/02/14 07:10:47;;;;;;;1.42;0.98;;;20.50;48.80;;;;;;5045200;28;20051;-36
2024/02/14 07:13:14;;;;;;;1.35;0.70;;;20.50;48.80;;;;;;5047816;28;20040;-36
2024/02/14 07:15:40;;;;;;;0.68;0.50;;;20.50;48.80;;;;;;5049062;28;20025;-36
2024/02/14 07:18:08;;;;;;;0.68;0.60;;;20.50;48.80;;;;;;5046462;28;20047;-37
2024/02/14 07:20:34;;;;;;;1.10;0.70;;;20.40;48.70;;;;;;5051082;28;20033;-36
2024/02/14 07:23:01;;;;;;;0.55;0.52;;;20.30;48.80;;;;;;5044985;28;20035;-37
2024/02/14 07:25:27;;;;;;;1.30;0.70;;;20.40;48.80;;;;;;5048766;28;20033;-36
2024/02/14 07:27:53;;;;;;;1.20;0.80;;;20.40;48.80;;;;;;5049578;28;20072;-36
2024/02/14 07:30:19;;;;;;;1.02;0.55;;;20.40;48.70;;;;;;5050000;28;20037;-36
2024/02/14 07:32:45;;;;;;;0.85;0.60;;;20.40;48.70;;;;;;5047603;28;20024;-35
2024/02/14 07:35:13;;;;;;;1.35;0.80;;;20.40;48.70;;;;;;5045055;28;20033;-37
2024/02/14 07:37:39;;;;;;;1.00;0.60;;;20.40;48.70;;;;;;5049648;28;20124;-37
2024/02/14 07:40:06;;;;;;;0.70;0.70;;;20.30;48.80;;;;;;5046749;28;20039;-37
2024/02/14 07:42:32;;;;;;;1.05;0.70;;;20.40;48.80;;;;;;5053290;28;20021;-37
2024/02/14 07:44:59;;;;;;;0.80;0.60;;;20.40;48.80;;;;;;5048112;28;20036;-37
2024/02/14 07:47:25;;;;;;;1.48;0.80;;;20.40;48.80;;;;;;5047910;28;20045;-36
2024/02/14 07:49:53;;;;;;;0.70;0.55;;;20.30;48.70;;;;;;5046964;28;21852;-37
2024/02/14 07:52:19;;;;;;;1.38;0.75;;;20.30;48.80;;;;;;5048375;28;20029;-37
2024/02/14 07:54:45;;;;;;;1.10;0.80;;;20.30;48.90;;;;;;5051273;28;20021;-37
2024/02/14 07:57:11;;;;;;;1.63;0.60;;;20.30;48.90;;;;;;5046716;28;20029;-37
2024/02/14 07:59:37;;;;;;;1.20;0.77;;;20.40;48.80;;;;;;5048021;28;20037;-37
2024/02/14 08:02:03;;;;;;;0.80;0.73;;;20.30;48.80;;;;;;5047971;28;20039;-37
2024/02/14 08:04:29;;;;;;;0.93;0.60;;;20.30;48.80;;;;;;5047485;28;20073;-37
2024/02/14 08:06:56;;;;;;;0.65;0.50;;;20.30;48.80;;;;;;5070110;28;20116;-37
2024/02/14 08:09:22;;;;;;;0.63;0.60;;;20.20;48.80;;;;;;5070573;28;20029;-37
2024/02/14 08:11:48;;;;;;;1.33;0.70;;;20.30;49.00;;;;;;5067128;28;20024;-37
2024/02/14 08:14:14;;;;;;;0.70;0.60;;;20.30;48.90;;;;;;5070686;28;20025;-36
2024/02/14 08:16:40;;;;;;;1.50;0.68;;;20.30;48.90;;;;;;5067124;28;20073;-37
2024/02/14 08:19:06;;;;;;;0.75;0.70;;;20.30;48.90;;;;;;5057911;28;20088;-35
2024/02/14 08:21:32;;;;;;;1.42;0.82;;;20.30;48.90;;;;;;5070402;28;20060;-36
2024/02/14 08:23:59;;;;;;;2.08;0.70;;;20.30;48.90;;;;;;5066142;28;20055;-36
2024/02/14 08:26:25;;;;;;;0.88;0.68;;;20.20;49.00;;;;;;5066797;28;20469;-35
2024/02/14 08:28:51;;;;;;;0.90;0.80;;;20.30;49.00;;;;;;5067088;28;20047;-35
2024/02/14 08:31:17;;;;;;;0.52;0.47;;;20.30;49.00;;;;;;5071135;28;20037;-35
2024/02/14 08:33:43;;;;;;;1.55;0.73;;;20.30;48.90;;;;;;5065341;28;20029;-36
2024/02/14 08:36:09;;;;;;;1.48;0.73;;;20.30;48.90;;;;;;5065312;28;20032;-35
2024/02/14 08:38:36;;;;;;;1.05;0.60;;;20.20;49.00;;;;;;5066966;28;20020;-36
2024/02/14 08:41:05;;;;;;;0.82;0.60;;;20.20;49.00;;;;;;5065437;28;20088;-36
2024/02/14 08:43:31;;;;;;;0.80;0.60;;;20.20;49.00;;;;;;5065787;28;20118;-36
2024/02/14 08:45:57;;;;;;;0.85;0.60;;;20.20;49.00;;;;;;5070041;28;20036;-36
2024/02/14 08:48:25;;;;;;;0.88;0.70;;;20.20;49.00;;;;;;5067764;28;20040;-36
2024/02/14 08:50:51;;;;;;;0.90;0.80;;;20.20;49.00;;;;;;5073132;28;20060;-36
2024/02/14 08:53:17;;;;;;;1.08;0.63;;;20.20;49.00;;;;;;5055986;28;20091;-36
2024/02/14 08:55:43;;;;;;;0.60;0.50;;;20.10;49.10;;;;;;5076311;28;20856;-36
2024/02/14 08:58:09;;;;;;;0.80;0.60;;;20.10;49.10;;;;;;5076076;28;20086;-36
2024/02/14 09:00:41;;;;;;;0.80;0.63;;;20.20;49.10;;;;;;5075310;28;20021;-35
2024/02/14 09:03:07;;;;;;;0.98;0.80;;;20.20;49.10;;;;;;5078644;28;20059;-36
2024/02/14 09:05:34;;;;;;;0.52;0.52;;;20.20;49.10;;;;;;5071284;28;20037;-35
2024/02/14 09:08:00;;;;;;;1.20;0.50;;;20.20;49.10;;;;;;5061962;28;20047;-36
2024/02/14 09:10:26;;;;;;;0.50;0.50;;;20.10;49.00;;;;;;5059365;28;20038;-36
2024/02/14 09:12:53;;;;;;;1.17;0.80;;;20.10;49.10;;;;;;5057989;28;20056;-35
2024/02/14 09:15:19;;;;;;;1.00;0.75;;;20.20;49.20;;;;;;5050920;28;20873;-35
2024/02/14 09:17:45;;;;;;;0.70;0.52;;;20.20;49.20;;;;;;5060261;28;20047;-36
2024/02/14 09:20:13;;;;;;;1.27;0.70;;;20.20;49.20;;;;;;5056751;28;20033;-38
2024/02/14 09:22:43;;;;;;;0.85;0.60;;;20.20;49.20;;;;;;5054804;28;20029;-37
2024/02/14 09:25:09;;;;;;;0.60;0.60;;;20.10;49.10;;;;;;5059568;28;20040;-38
2024/02/14 09:27:35;;;;;;;1.58;0.50;;;20.10;49.30;;;;;;5055272;28;20025;-37
2024/02/14 09:30:07;;;;;;;0.70;0.63;;;20.10;49.30;;;;;;5059432;28;20045;-37
2024/02/14 09:32:33;;;;;;;2.20;0.95;;;20.20;49.30;;;;;;5055693;28;20032;-37
2024/02/14 09:35:00;;;;;;;0.80;0.60;;;20.20;49.20;;;;;;5036973;28;20100;-36
2024/02/14 09:37:29;;;;;;;1.33;0.70;;;20.10;49.20;;;;;;5058169;28;20036;-38
2024/02/14 09:39:55;;;;;;;0.93;0.50;;;20.10;49.20;;;;;;5058875;28;20811;-37
2024/02/14 09:42:26;;;;;;;2.75;0.60;;;20.00;49.20;;;;;;5055795;28;20029;-37
2024/02/14 09:44:53;;;;;;;1.08;0.60;;;20.10;49.40;;;;;;5025582;28;20029;-37
2024/02/14 09:47:19;;;;;;;0.95;0.70;;;20.10;49.30;;;;;;5026334;28;20586;-37
2024/02/14 09:49:45;;;;;;;1.05;0.70;;;20.20;49.20;;;;;;5058626;28;20033;-37
2024/02/14 09:52:12;;;;;;;1.13;0.70;;;20.10;49.10;;;;;;5057163;28;20075;-37
2024/02/14 09:54:39;;;;;;;2.45;0.40;;;20.10;49.10;;;;;;5058671;28;20039;-37
2024/02/14 09:57:05;;;;;;;0.82;0.60;;;20.00;49.10;;;;;;5060370;28;20033;-37
2024/02/14 09:59:31;;;;;;;0.93;0.70;;;20.00;49.20;;;;;;5055578;28;20052;-37
2024/02/14 10:01:57;;;;;;;1.10;0.50;;;20.10;49.20;;;;;;5038799;28;20029;-37
2024/02/14 10:04:24;;;;;;;0.90;0.47;;;20.10;49.20;;;;;;5050011;28;20127;-38
2024/02/14 10:06:51;;;;;;;0.73;0.60;;;20.10;49.10;;;;;;5059433;28;20033;-37
2024/02/14 10:09:21;;;;;;;1.35;0.73;;;20.10;49.10;;;;;;5055096;28;20067;-37
2024/02/14 10:11:48;;;;;;;0.77;0.50;;;20.00;49.10;;;;;;5059007;28;20033;-37
2024/02/14 10:14:14;;;;;;;1.17;0.70;;;20.00;49.20;;;;;;5058838;28;20089;-37
2024/02/14 10:16:45;;;;;;;1.42;0.80;;;20.00;49.20;;;;;;5053547;28;20041;-37
2024/02/14 10:19:20;;;;;;;1.13;0.77;;;20.10;49.20;;;;;;5058590;28;20083;-37
2024/02/14 10:22:00;;;;;;;1.00;0.57;;;20.10;49.20;;;;;;5056736;28;20036;-37
2024/02/14 10:24:30;;;;;;;0.90;0.60;;;20.10;49.20;;;;;;5054263;28;20104;-37
2024/02/14 10:26:59;;;;;;;0.95;0.60;;;20.00;49.10;;;;;;5057179;28;20034;-37
2024/02/14 10:29:29;;;;;;;1.10;0.60;;;20.00;49.20;;;;;;5055308;28;20545;-36
2024/02/14 10:31:55;;;;;;;0.80;0.60;;;20.00;49.10;;;;;;5059319;28;20049;-37
2024/02/14 10:34:25;;;;;;;1.15;0.50;;;20.10;49.10;;;;;;5060005;28;20033;-37
2024/02/14 10:36:53;;;;;;;0.70;0.60;;;20.00;49.00;;;;;;5059904;28;20037;-37
2024/02/14 10:39:20;;;;;;;0.55;0.50;;;20.00;49.00;;;;;;5054506;28;20036;-36
2024/02/14 10:41:46;;;;;;;0.85;0.70;;;20.00;49.10;;;;;;5042402;28;20029;-36
2024/02/14 10:44:12;;;;;;;1.17;0.70;;;19.90;49.10;;;;;;5058105;28;20033;-37
2024/02/14 10:46:39;;;;;;;1.02;0.90;;;20.00;49.20;;;;;;5054454;28;20492;-37
2024/02/14 10:49:05;;;;;;;0.50;0.50;;;20.00;49.10;;;;;;5058865;28;20048;-38
2024/02/14 10:51:33;;;;;;;0.88;0.60;;;20.00;49.00;;;;;;5056103;28;20075;-36
2024/02/14 10:53:59;;;;;;;1.35;0.63;;;20.00;49.10;;;;;;5054006;28;20060;-37
2024/02/14 10:56:28;;;;;;;1.30;0.60;;;20.00;49.10;;;;;;5040376;28;20089;-37
2024/02/14 10:58:56;;;;;;;0.60;0.57;;;19.90;49.10;;;;;;5054396;28;20029;-37
2024/02/14 11:01:24;;;;;;;0.65;0.50;;;20.00;49.20;;;;;;5059992;28;20052;-37
2024/02/14 11:03:51;;;;;;;0.63;0.50;;;20.00;49.10;;;;;;5034999;28;20021;-37
2024/02/14 11:06:17;;;;;;;0.88;0.63;;;20.00;49.00;;;;;;5058125;28;20560;-37
2024/02/14 11:09:00;;;;;;;0.80;0.50;;;20.00;49.10;;;;;;5076452;28;20040;-38
2024/02/14 11:11:29;;;;;;;0.75;0.50;;;20.00;49.10;;;;;;5058820;28;20063;-37
2024/02/14 11:13:55;;;;;;;0.50;0.50;;;19.90;49.20;;;;;;5078154;28;20167;-37
2024/02/14 11:16:32;;;;;;;0.55;0.50;;;19.90;49.20;;;;;;5056016;28;20040;-37
2024/02/14 11:19:11;;;;;;;1.10;0.77;;;20.00;49.20;;;;;;5078366;28;20033;-36
2024/02/14 11:21:44;;;;;;;1.05;0.52;;;20.00;49.10;;;;;;5078554;28;20036;-36
2024/02/14 11:24:11;;;;;;;1.02;0.70;;;20.00;49.30;;;;;;5077081;28;20121;-36
2024/02/14 11:26:59;;;;;;;1.08;0.60;;;19.90;49.30;;;;;;5074899;28;20059;-37
2024/02/14 11:29:34;;;;;;;0.60;0.50;;;19.90;49.40;;;;;;5071802;28;20121;-37
2024/02/14 11:32:01;;;;;;;0.70;0.45;;;20.00;49.30;;;;;;5074651;28;20040;-37
2024/02/14 11:34:28;;;;;;;0.50;0.40;;;20.00;49.20;;;;;;5072360;28;20032;-37
2024/02/14 11:36:54;;;;;;;0.73;0.60;;;20.00;49.10;;;;;;5079123;28;20040;-37
2024/02/14 11:39:21;;;;;;;1.00;0.70;;;20.00;49.20;;;;;;5074900;28;20032;-35
2024/02/14 11:41:47;;;;;;;0.63;0.52;;;19.90;49.20;;;;;;5073994;28;20036;-35
2024/02/14 11:44:13;;;;;;;0.93;0.70;;;19.90;49.20;;;;;;5074226;28;20021;-35
2024/02/14 11:46:40;;;;;;;0.90;0.60;;;19.90;49.10;;;;;;5075967;28;20040;-36
2024/02/14 11:49:07;;;;;;;0.77;0.60;;;20.00;49.10;;;;;;5059524;28;20039;-36
2024/02/14 11:51:35;;;;;;;0.70;0.60;;;20.00;49.10;;;;;;5077900;28;20041;-36
2024/02/14 11:54:07;;;;;;;0.60;0.52;;;19.90;49.10;;;;;;5075078;28;20025;-36
2024/02/14 11:56:33;;;;;;;0.70;0.63;;;19.90;49.10;;;;;;5079473;28;20036;-36
2024/02/14 11:59:02;;;;;;;0.80;0.60;;;19.80;49.10;;;;;;5073176;28;20121;-36
2024/02/14 12:01:33;;;;;;;0.95;0.70;;;19.90;49.10;;;;;;5058502;28;20047;-35
2024/02/14 12:04:08;;;;;;;0.85;0.52;;;20.00;49.00;;;;;;5072988;28;20115;-36
2024/02/14 12:06:34;;;;;;;0.70;0.57;;;19.90;49.00;;;;;;5075667;28;20052;-36
2024/02/14 12:09:09;;;;;;;0.70;0.55;;;19.90;49.10;;;;;;5079614;28;20031;-36
2024/02/14 12:11:42;;;;;;;0.73;0.60;;;19.90;49.10;;;;;;5073413;28;20040;-35
2024/02/14 12:14:11;;;;;;;0.90;0.52;;;19.80;49.10;;;;;;5074894;28;20040;-36
2024/02/14 12:16:39;;;;;;;0.70;0.57;;;19.80;49.10;;;;;;5054348;28;20077;-36
2024/02/14 12:19:15;;;;;;;0.50;0.45;;;19.90;49.10;;;;;;5036939;28;20025;-36
2024/02/14 12:21:43;;;;;;;1.70;0.60;;;19.90;49.00;;;;;;5072851;28;20157;-36
2024/02/14 12:24:10;;;;;;;0.90;0.60;;;19.90;49.00;;;;;;5076464;28;20131;-36
2024/02/14 12:26:36;;;;;;;0.70;0.50;;;19.90;49.10;;;;;;5072083;28;20043;-36
2024/02/14 12:29:09;;;;;;;0.45;0.40;;;19.80;49.10;;;;;;5057257;28;20064;-36
2024/02/14 12:31:36;;;;;;;0.60;0.50;;;19.80;49.10;;;;;;5074348;28;20044;-37
2024/02/14 12:34:04;;;;;;;0.60;0.60;;;19.90;49.20;;;;;;5075570;28;20032;-36
2024/02/14 12:36:31;;;;;;;0.77;0.57;;;19.90;49.30;;;;;;5076035;28;20104;-36
2024/02/14 12:38:57;;;;;;;0.70;0.60;;;19.90;49.30;;;;;;5077876;28;20786;-36
2024/02/14 12:41:25;;;;;;;0.60;0.60;;;19.80;49.30;;;;;;5078052;28;20307;-36
2024/02/14 12:43:52;;;;;;;1.13;0.60;;;19.80;49.50;;;;;;5076364;28;20055;-35
2024/02/14 12:46:18;;;;;;;0.68;0.43;;;19.80;49.70;;;;;;5079814;28;20032;-36
2024/02/14 12:48:44;;;;;;;0.70;0.60;;;19.80;49.50;;;;;;5082718;28;20050;-36